Quakertown, PA

11:39 PM EDT on July 22, 2017 (GMT -0400)
Quakertown

Weather History for KUKT - May, 2014

Change the Weather History Date:

Wednesday, May 14, 2014

  Actual Average (KABE) Record (KABE)
Temperature  
Mean Temperature 60 °F -  
Max Temperature 71 °F 71 °F 89 °F (1940)
Min Temperature 48 °F 48 °F 29 °F (1996)
Degree Days  
Heating Degree Days 6    
Growing Degree Days 10 (Base 50)    
Moisture  
Dew Point 53 °F    
Average Humidity 82    
Maximum Humidity 100    
Minimum Humidity 64    
Precipitation  
Precipitation 0.00 in - - ()
Sea Level Pressure  
Sea Level Pressure 30.25 in    
Wind  
Wind Speed 5 mph (East)    
Max Wind Speed 10 mph    
Max Gust Speed -    
Visibility 9 miles    
Events      
Averages and records for this station are not official NWS values.
T = Trace of Precipitation, MM = Missing Value Source: NWS Daily Summary

Daily Weather History Graph

Daily Weather History Graph

Search for Another Location

Airport or City:

Trip Planner

Search our weather history database for the weather conditions in past years. The results will help you decide how hot, cold, wet, or windy it might be!

Date:

Astronomy

May. 14, 2014 Rise Set
Actual Time 5:46 AM EDT 8:10 PM EDT
Civil Twilight 5:15 AM EDT 8:41 PM EDT
Nautical Twilight 4:37 AM EDT 9:19 PM EDT
Astronomical Twilight 3:55 AM EDT 10:01 PM EDT
Moon 8:12 PM EDT (5/14) 5:43 AM EDT (5/14)
Length of Visible Light 15h 25m
Length of Day
14h 23m
Full, 100% of the Moon is Illuminated
May 14
Full
May 14
Full
May 21
Last Quarter
May 28
New
Jun 5
First Quarter

Hourly Weather History & Observations

Time (EDT) Temp. Dew Point Humidity Pressure Visibility Wind Dir Wind Speed Gust Speed Precip Events Conditions
12:15 AM 50.0 °F 41.0 °F 71% 30.27 in 10.0 mi East 4.6 mph - N/A   Mostly Cloudy
12:35 AM 50.0 °F 42.8 °F 76% 30.27 in 10.0 mi East 6.9 mph - N/A   Overcast
12:55 AM 50.0 °F 44.6 °F 82% 30.26 in 10.0 mi East 5.8 mph - N/A   Overcast
1:15 AM 50.0 °F 44.6 °F 82% 30.26 in 10.0 mi East 6.9 mph - N/A   Overcast
1:35 AM 50.0 °F 44.6 °F 82% 30.27 in 10.0 mi East 5.8 mph - N/A   Overcast
1:55 AM 50.0 °F 44.6 °F 82% 30.26 in 10.0 mi East 5.8 mph - N/A   Overcast
2:15 AM 50.0 °F 46.4 °F 87% 30.26 in 10.0 mi East 4.6 mph - N/A   Overcast
2:35 AM 50.0 °F 46.4 °F 87% 30.25 in 10.0 mi East 4.6 mph - N/A   Overcast
2:55 AM 50.0 °F 46.4 °F 87% 30.25 in 10.0 mi East 5.8 mph - N/A   Overcast
3:15 AM 50.0 °F 46.4 °F 87% 30.25 in 10.0 mi ENE 3.5 mph - N/A   Overcast
3:35 AM 50.0 °F 46.4 °F 87% 30.26 in 10.0 mi Calm Calm - N/A   Overcast
3:55 AM 50.0 °F 46.4 °F 87% 30.25 in 10.0 mi ENE 3.5 mph - N/A   Overcast
4:15 AM 50.0 °F 46.4 °F 87% 30.24 in 10.0 mi ENE 4.6 mph - N/A   Overcast
4:35 AM 50.0 °F 46.4 °F 87% 30.25 in 10.0 mi ENE 4.6 mph - N/A   Overcast
5:15 AM 50.0 °F 46.4 °F 87% 30.26 in 10.0 mi NE 4.6 mph - N/A   Overcast
5:35 AM 50.0 °F 46.4 °F 87% 30.27 in 10.0 mi NE 4.6 mph - N/A   Overcast
5:55 AM 48.2 °F 48.2 °F 100% 30.27 in 10.0 mi East 5.8 mph - N/A   Overcast
6:15 AM 50.0 °F 48.2 °F 94% 30.27 in 7.0 mi East 6.9 mph - N/A   Overcast
6:35 AM 50.0 °F 48.2 °F 94% 30.27 in 8.0 mi NE 4.6 mph - N/A   Overcast
6:55 AM 50.0 °F 48.2 °F 94% 30.28 in 8.0 mi ENE 3.5 mph - N/A   Overcast
7:15 AM 50.0 °F 48.2 °F 94% 30.30 in 7.0 mi ENE 3.5 mph - N/A   Overcast
7:35 AM 50.0 °F 48.2 °F 94% 30.30 in 6.0 mi ENE 3.5 mph - N/A   Overcast
7:55 AM 50.0 °F 48.2 °F 94% 30.31 in 6.0 mi NE 5.8 mph - N/A   Overcast
8:15 AM 50.0 °F 48.2 °F 94% 30.31 in 7.0 mi ENE 5.8 mph - N/A   Overcast
8:35 AM 50.0 °F 48.2 °F 94% 30.32 in 7.0 mi NE 5.8 mph - N/A   Overcast
8:55 AM 50.0 °F 48.2 °F 94% 30.31 in 7.0 mi NE 3.5 mph - N/A   Overcast
9:15 AM 51.8 °F 50.0 °F 94% 30.31 in 7.0 mi East 4.6 mph - N/A   Overcast
9:35 AM 53.6 °F 50.0 °F 88% 30.30 in 8.0 mi East 5.8 mph - N/A   Overcast
9:55 AM 55.4 °F 50.0 °F 82% 30.30 in 9.0 mi East 5.8 mph - N/A   Overcast
11:15 AM 57.2 °F 51.8 °F 82% 30.30 in 10.0 mi East 3.5 mph - N/A   Overcast
11:35 AM 59.0 °F 51.8 °F 77% 30.30 in 10.0 mi East 3.5 mph - N/A   Overcast
11:55 AM 60.8 °F 53.6 °F 77% 30.29 in 10.0 mi ESE 5.8 mph - N/A   Overcast
12:15 PM 62.6 °F 53.6 °F 72% 30.29 in 10.0 mi ESE 3.5 mph - N/A   Overcast
12:35 PM 64.4 °F 53.6 °F 68% 30.28 in 10.0 mi SE 5.8 mph - N/A   Overcast
12:55 PM 64.4 °F 53.6 °F 68% 30.28 in 10.0 mi ESE 4.6 mph - N/A   Overcast
1:15 PM 64.4 °F 55.4 °F 73% 30.26 in 10.0 mi SE 6.9 mph - N/A   Overcast
1:35 PM 66.2 °F 55.4 °F 68% 30.26 in 10.0 mi ESE 6.9 mph - N/A   Overcast
1:55 PM 66.2 °F 55.4 °F 68% 30.25 in 10.0 mi ESE 4.6 mph - N/A   Overcast
2:15 PM 68.0 °F 57.2 °F 68% 30.25 in 10.0 mi SE 4.6 mph - N/A   Overcast
2:35 PM 69.8 °F 57.2 °F 64% 30.24 in 10.0 mi SSE 5.8 mph - N/A   Overcast
2:55 PM 69.8 °F 57.2 °F 64% 30.24 in 10.0 mi SE 6.9 mph - N/A   Overcast
3:15 PM 71.6 °F 59.0 °F 64% 30.23 in 10.0 mi SE 8.1 mph - N/A   Overcast
3:35 PM 71.6 °F 59.0 °F 64% 30.23 in 10.0 mi SE 6.9 mph - N/A   Overcast
3:55 PM 71.6 °F 59.0 °F 64% 30.22 in 10.0 mi ESE 5.8 mph - N/A   Mostly Cloudy
4:15 PM 71.6 °F 59.0 °F 64% 30.22 in 10.0 mi SSE 6.9 mph - N/A   Mostly Cloudy
4:35 PM 71.6 °F 59.0 °F 64% 30.22 in 10.0 mi South 6.9 mph - N/A   Mostly Cloudy
4:55 PM 69.8 °F 60.8 °F 73% 30.21 in 10.0 mi ESE 10.4 mph - N/A   Overcast
5:15 PM 69.8 °F 60.8 °F 73% 30.22 in 10.0 mi SE 8.1 mph - N/A   Overcast
5:35 PM 68.0 °F 60.8 °F 78% 30.21 in 10.0 mi SE 6.9 mph - N/A   Overcast
5:55 PM 68.0 °F 60.8 °F 78% 30.21 in 10.0 mi SE 6.9 mph - N/A   Overcast
6:15 PM 68.0 °F 60.8 °F 78% 30.22 in 10.0 mi SE 6.9 mph - N/A   Overcast
6:35 PM 68.0 °F 60.8 °F 78% 30.21 in 10.0 mi SE 5.8 mph - N/A   Overcast
6:55 PM 68.0 °F 60.8 °F 78% 30.21 in 10.0 mi ESE 6.9 mph - N/A   Overcast
7:15 PM 68.0 °F 60.8 °F 78% 30.21 in 10.0 mi ESE 5.8 mph - N/A   Overcast
7:55 PM 66.2 °F 60.8 °F 83% 30.20 in 10.0 mi ESE 9.2 mph - N/A   Overcast
8:15 PM 66.2 °F 60.8 °F 83% 30.20 in 10.0 mi East 8.1 mph - N/A   Overcast
8:35 PM 66.2 °F 60.8 °F 83% 30.20 in 10.0 mi ESE 8.1 mph - N/A   Overcast
8:55 PM 64.4 °F 60.8 °F 88% 30.21 in 10.0 mi ESE 6.9 mph - N/A   Overcast
9:15 PM 64.4 °F 62.6 °F 94% 30.20 in 10.0 mi ESE 6.9 mph - N/A   Overcast
9:35 PM 64.4 °F 60.8 °F 88% 30.21 in 10.0 mi ESE 8.1 mph - N/A   Overcast
9:55 PM 64.4 °F 60.8 °F 88% 30.22 in 9.0 mi East 5.8 mph - N/A   Overcast
10:15 PM 62.6 °F 59.0 °F 88% 30.22 in 7.0 mi East 4.6 mph - N/A   Overcast
10:35 PM 62.6 °F 59.0 °F 88% 30.23 in 5.0 mi East 4.6 mph - N/A   Overcast
10:55 PM 59.0 °F 59.0 °F 100% 30.23 in 1.8 mi East 4.6 mph - N/A   Overcast
11:15 PM 59.0 °F 59.0 °F 100% 30.23 in 1.5 mi Calm Calm - N/A   Overcast
11:35 PM 59.0 °F 59.0 °F 100% 30.22 in 1.5 mi East 5.8 mph - N/A   Overcast
11:55 PM 59.0 °F 59.0 °F 100% 30.23 in 1.2 mi East 3.5 mph - N/A   Overcast